Time;durP1;ratioP1;P1;durP2;ratioP2;P2;SDS_P1;SDS_P2;PMS_P1;PMS_P2;Temp;Humidity;BMP_temperature;BMP_pressure;BME280_temperature;BME280_humidity;BME280_pressure;Samples;Min_cycle;Max_cycle;Signal;HPM_P1;HPM_P2
2023/12/22 00:00:25;;;;;;;17.47;3.63;;;10.00;92.10;;;;;;5079841;28;20215;-55
2023/12/22 00:02:54;;;;;;;20.00;3.73;;;10.00;99.00;;;;;;5078319;28;21034;-56
2023/12/22 00:05:22;;;;;;;14.13;3.20;;;9.80;99.90;;;;;;5081467;28;20358;-57
2023/12/22 00:07:50;;;;;;;13.90;2.97;;;9.70;99.90;;;;;;5079604;28;20196;-57
2023/12/22 00:10:19;;;;;;;7.37;2.40;;;9.50;99.90;;;;;;5081044;28;20665;-56
2023/12/22 00:12:47;;;;;;;9.87;2.40;;;9.40;99.90;;;;;;5082132;28;20219;-56
2023/12/22 00:15:16;;;;;;;7.97;2.30;;;9.30;99.90;;;;;;5081363;28;20220;-55
2023/12/22 00:17:44;;;;;;;10.67;2.63;;;9.10;99.90;;;;;;5081140;28;20246;-56
2023/12/22 00:20:14;;;;;;;9.57;2.70;;;9.00;99.90;;;;;;5074965;28;20649;-56
2023/12/22 00:22:42;;;;;;;14.07;2.93;;;8.90;99.90;;;;;;5081213;28;20184;-56
2023/12/22 00:25:11;;;;;;;10.87;2.80;;;8.80;99.90;;;;;;5081000;28;20218;-57
2023/12/22 00:27:39;;;;;;;17.67;3.70;;;8.60;99.90;;;;;;5079976;28;20370;-56
2023/12/22 00:30:08;;;;;;;13.00;4.00;;;8.60;99.90;;;;;;5080933;28;20693;-56
2023/12/22 00:32:38;;;;;;;18.43;3.57;;;8.50;99.90;;;;;;5080354;28;20227;-55
2023/12/22 00:35:07;;;;;;;20.17;4.07;;;8.90;99.90;;;;;;5079636;28;20198;-56
2023/12/22 00:37:35;;;;;;;21.03;3.83;;;8.40;99.90;;;;;;5075539;28;20196;-55
2023/12/22 00:40:06;;;;;;;20.93;4.63;;;8.30;99.90;;;;;;5079264;28;20212;-56
2023/12/22 00:42:35;;;;;;;25.33;4.67;;;8.30;99.90;;;;;;5079209;28;20226;-57
2023/12/22 00:45:04;;;;;;;27.70;4.87;;;8.40;99.90;;;;;;5075250;28;20224;-54
2023/12/22 00:47:34;;;;;;;28.37;4.20;;;8.40;99.90;;;;;;5082819;28;20247;-56
2023/12/22 00:50:05;;;;;;;23.10;5.47;;;8.40;99.90;;;;;;5078743;28;20192;-56
2023/12/22 00:52:33;;;;;;;24.00;4.60;;;8.50;99.90;;;;;;5080679;28;20646;-55
2023/12/22 00:55:02;;;;;;;24.07;4.50;;;8.70;99.90;;;;;;5082711;28;20223;-55
2023/12/22 00:57:31;;;;;;;21.57;4.37;;;8.70;99.90;;;;;;5078011;28;20526;-56
2023/12/22 00:59:59;;;;;;;22.73;4.43;;;8.80;99.90;;;;;;5082156;28;20893;-55
2023/12/22 01:02:27;;;;;;;24.67;4.73;;;8.90;99.90;;;;;;5052170;28;20232;-56
2023/12/22 01:04:55;;;;;;;14.43;4.10;;;8.90;99.90;;;;;;4961867;28;20196;-56
2023/12/22 01:07:25;;;;;;;20.97;4.73;;;9.00;99.90;;;;;;4960906;28;20227;-57
2023/12/22 01:09:53;;;;;;;23.97;5.13;;;9.00;99.90;;;;;;4964344;28;20219;-56
2023/12/22 01:12:22;;;;;;;17.53;4.20;;;9.00;99.90;;;;;;5029789;28;20243;-57
2023/12/22 01:14:51;;;;;;;19.90;3.97;;;9.10;99.90;;;;;;5082466;28;20773;-57
2023/12/22 01:17:20;;;;;;;21.63;4.57;;;9.00;99.90;;;;;;5079422;28;20231;-56
2023/12/22 01:19:48;;;;;;;18.80;4.50;;;9.00;99.90;;;;;;5080252;28;20195;-56
2023/12/22 01:22:16;;;;;;;27.07;4.63;;;9.10;99.90;;;;;;5077637;28;20227;-58
2023/12/22 01:24:46;;;;;;;22.07;4.27;;;9.10;99.90;;;;;;5086039;28;20250;-56
2023/12/22 01:27:14;;;;;;;15.40;3.67;;;9.10;99.90;;;;;;5078684;28;20220;-54
2023/12/22 01:29:42;;;;;;;22.00;4.80;;;9.00;99.90;;;;;;5081317;28;20323;-56
2023/12/22 01:32:10;;;;;;;13.13;3.40;;;9.00;99.90;;;;;;5077681;28;20187;-56
2023/12/22 01:34:38;;;;;;;24.43;4.20;;;8.90;99.90;;;;;;5075029;28;20472;-55
2023/12/22 01:37:07;;;;;;;25.97;4.43;;;8.90;99.90;;;;;;5080219;28;20307;-56
2023/12/22 01:39:35;;;;;;;23.37;4.20;;;8.80;99.90;;;;;;5080661;28;20227;-56
2023/12/22 01:42:05;;;;;;;23.70;4.33;;;8.80;99.90;;;;;;5080430;28;20219;-55
2023/12/22 01:44:33;;;;;;;24.80;4.47;;;8.80;99.90;;;;;;5080482;28;20690;-56
2023/12/22 01:47:01;;;;;;;17.87;3.97;;;8.80;99.90;;;;;;5082458;28;20186;-53
2023/12/22 01:49:30;;;;;;;18.37;4.73;;;8.80;99.90;;;;;;5084292;28;20200;-55
2023/12/22 01:51:58;;;;;;;22.80;4.33;;;8.70;99.90;;;;;;5082780;28;20238;-56
2023/12/22 01:54:27;;;;;;;27.23;4.60;;;8.70;99.90;;;;;;5081987;28;20306;-56
2023/12/22 01:56:56;;;;;;;20.37;4.30;;;8.70;99.90;;;;;;5082551;28;20594;-57
2023/12/22 01:59:26;;;;;;;24.23;4.30;;;8.70;99.90;;;;;;5082820;27;20705;-55
2023/12/22 02:01:55;;;;;;;18.20;4.03;;;8.80;99.90;;;;;;5082922;28;20327;-56
2023/12/22 02:04:25;;;;;;;28.90;4.43;;;8.80;99.90;;;;;;4964239;28;20222;-55
2023/12/22 02:06:54;;;;;;;20.43;4.00;;;8.90;99.90;;;;;;4978685;28;20258;-56
2023/12/22 02:09:22;;;;;;;23.90;4.10;;;9.00;99.90;;;;;;5040820;28;20222;-54
2023/12/22 02:11:50;;;;;;;27.23;4.13;;;9.00;99.90;;;;;;5083676;28;20215;-56
2023/12/22 02:14:18;;;;;;;19.57;3.73;;;9.00;99.90;;;;;;5084033;28;20224;-56
2023/12/22 02:16:53;;;;;;;13.73;3.57;;;9.10;99.90;;;;;;5086446;28;20522;-56
2023/12/22 02:19:35;;;;;;;15.03;3.40;;;9.20;99.90;;;;;;5080332;28;20677;-56
2023/12/22 02:22:05;;;;;;;15.83;3.30;;;9.10;99.90;;;;;;5083374;28;20215;-56
2023/12/22 02:24:38;;;;;;;21.20;3.33;;;9.10;99.90;;;;;;5082968;28;20215;-55
2023/12/22 02:27:13;;;;;;;11.90;3.37;;;9.10;99.90;;;;;;5084088;28;20269;-56
2023/12/22 02:29:47;;;;;;;12.87;2.77;;;9.00;99.90;;;;;;5081475;28;20221;-54
2023/12/22 02:32:23;;;;;;;11.30;3.00;;;9.00;99.90;;;;;;5083031;28;20183;-54
2023/12/22 02:34:53;;;;;;;15.47;3.40;;;;;;;;;;5085298;28;20191;-56
2023/12/22 02:37:23;;;;;;;10.97;3.03;;;9.00;99.90;;;;;;5080261;28;20661;-56
2023/12/22 02:39:54;;;;;;;10.13;2.80;;;9.10;99.90;;;;;;5081730;28;20654;-56
2023/12/22 02:42:29;;;;;;;11.37;3.07;;;9.00;99.90;;;;;;5082560;28;20273;-55
2023/12/22 02:44:58;;;;;;;14.87;3.40;;;9.10;99.90;;;;;;5084752;28;20211;-56
2023/12/22 02:47:28;;;;;;;15.63;3.70;;;9.10;99.90;;;;;;5082284;28;20227;-57
2023/12/22 02:49:57;;;;;;;17.03;3.30;;;9.10;99.90;;;;;;5080922;28;20224;-55
2023/12/22 02:52:25;;;;;;;16.70;4.07;;;9.10;99.90;;;;;;5086541;28;20260;-56
2023/12/22 02:54:54;;;;;;;19.97;3.97;;;9.10;99.90;;;;;;5084305;28;20215;-55
2023/12/22 02:57:23;;;;;;;19.70;3.93;;;9.10;99.90;;;;;;5084525;28;20706;-55
2023/12/22 02:59:51;;;;;;;23.03;4.20;;;9.00;99.90;;;;;;5081214;27;20219;-55
2023/12/22 03:02:19;;;;;;;21.13;4.03;;;9.00;99.90;;;;;;5081649;28;20696;-55
2023/12/22 03:04:47;;;;;;;27.33;4.53;;;9.00;99.90;;;;;;5085267;28;20210;-56
2023/12/22 03:07:16;;;;;;;31.80;4.50;;;8.90;99.90;;;;;;5084707;28;20272;-55
2023/12/22 03:09:45;;;;;;;22.80;3.93;;;8.90;99.90;;;;;;5081259;28;20246;-56
2023/12/22 03:12:14;;;;;;;20.93;4.83;;;8.80;99.90;;;;;;5080822;28;20229;-53
2023/12/22 03:14:43;;;;;;;21.57;4.53;;;8.80;99.90;;;;;;5083334;28;20227;-55
2023/12/22 03:17:11;;;;;;;25.73;4.97;;;8.80;99.90;;;;;;5082204;28;20283;-54
2023/12/22 03:19:40;;;;;;;25.03;4.70;;;8.70;99.90;;;;;;5087383;28;20195;-55
2023/12/22 03:22:08;;;;;;;21.10;4.07;;;8.50;99.90;;;;;;5081362;28;20644;-54
2023/12/22 03:24:38;;;;;;;22.23;4.27;;;8.60;99.90;;;;;;5085064;28;20738;-57
2023/12/22 03:27:07;;;;;;;15.60;3.57;;;8.60;99.90;;;;;;5083850;28;20577;-57
2023/12/22 03:29:37;;;;;;;16.90;3.73;;;8.60;99.90;;;;;;5080682;28;20574;-57
2023/12/22 03:32:05;;;;;;;20.80;3.73;;;8.50;99.90;;;;;;5083275;27;20191;-57
2023/12/22 03:34:33;;;;;;;16.97;3.43;;;8.40;99.90;;;;;;5081715;28;20196;-56
2023/12/22 03:37:02;;;;;;;14.83;3.40;;;8.30;99.90;;;;;;5078754;28;20693;-56
2023/12/22 03:39:30;;;;;;;15.57;4.30;;;8.30;99.90;;;;;;5079193;28;20328;-56
2023/12/22 03:41:59;;;;;;;21.37;4.03;;;8.30;99.90;;;;;;5080678;28;20230;-56
2023/12/22 03:44:27;;;;;;;13.20;3.70;;;8.30;99.90;;;;;;5079033;28;20314;-55
2023/12/22 03:46:57;;;;;;;27.37;4.27;;;8.20;99.90;;;;;;5081005;28;20288;-56
2023/12/22 03:49:25;;;;;;;21.70;4.23;;;8.20;99.90;;;;;;5082927;28;20285;-56
2023/12/22 03:51:53;;;;;;;33.33;5.30;;;8.20;99.90;;;;;;5082377;28;20219;-56
2023/12/22 03:54:22;;;;;;;18.83;3.73;;;8.20;99.90;;;;;;5084245;28;20239;-57
2023/12/22 03:56:50;;;;;;;28.63;5.00;;;8.20;99.90;;;;;;5080323;28;20215;-56
2023/12/22 03:59:18;;;;;;;29.90;4.63;;;8.20;99.90;;;;;;5080977;28;20227;-55
2023/12/22 04:01:52;;;;;;;28.50;5.33;;;8.20;99.90;;;;;;5082643;28;20195;-57
2023/12/22 04:04:22;;;;;;;32.67;5.00;;;8.10;99.90;;;;;;5079654;28;20569;-57
2023/12/22 04:06:51;;;;;;;28.33;4.73;;;8.10;99.90;;;;;;5079968;28;20238;-56
2023/12/22 04:09:19;;;;;;;32.80;5.47;;;8.00;99.90;;;;;;5079994;28;20262;-57
2023/12/22 04:11:47;;;;;;;36.63;5.67;;;8.00;99.90;;;;;;5080273;28;20231;-55
2023/12/22 04:14:18;;;;;;;22.53;4.77;;;7.90;99.90;;;;;;5080209;28;23653;-56
2023/12/22 04:16:46;;;;;;;29.10;4.77;;;7.90;99.90;;;;;;5085938;28;20199;-54
2023/12/22 04:19:15;;;;;;;39.77;5.60;;;7.80;99.90;;;;;;5083194;28;20597;-54
2023/12/22 04:21:45;;;;;;;32.47;5.10;;;7.80;99.90;;;;;;5082125;28;20665;-56
2023/12/22 04:24:13;;;;;;;38.03;5.30;;;7.70;99.90;;;;;;5081425;28;20216;-56
2023/12/22 04:26:42;;;;;;;38.13;5.23;;;7.70;99.90;;;;;;5080084;28;20226;-57
2023/12/22 04:29:10;;;;;;;36.50;6.00;;;7.60;99.90;;;;;;5082404;28;20222;-55
2023/12/22 04:31:39;;;;;;;41.20;5.77;;;7.60;99.90;;;;;;5079288;28;20187;-54
2023/12/22 04:34:07;;;;;;;36.97;5.60;;;7.70;99.90;;;;;;5079710;28;20221;-55
2023/12/22 04:36:36;;;;;;;32.30;5.13;;;7.70;99.90;;;;;;5082311;28;20630;-56
2023/12/22 04:39:06;;;;;;;34.13;5.63;;;7.70;99.90;;;;;;5078887;28;20346;-57
2023/12/22 04:41:35;;;;;;;38.93;6.23;;;7.80;99.90;;;;;;5080496;28;20231;-57
2023/12/22 04:44:03;;;;;;;31.80;5.10;;;7.80;99.90;;;;;;5083421;28;20204;-57
2023/12/22 04:46:31;;;;;;;24.20;5.40;;;7.90;99.90;;;;;;5081289;28;20214;-56
2023/12/22 04:49:01;;;;;;;34.37;5.30;;;8.00;99.90;;;;;;5077913;28;20212;-57
2023/12/22 04:51:30;;;;;;;29.83;5.00;;;8.10;99.90;;;;;;5078368;28;20235;-56
2023/12/22 04:53:58;;;;;;;27.83;5.30;;;8.20;99.90;;;;;;5081564;28;20223;-56
2023/12/22 04:56:27;;;;;;;28.20;5.50;;;8.20;99.90;;;;;;5081054;28;20243;-55
2023/12/22 04:58:56;;;;;;;27.30;5.53;;;8.30;99.90;;;;;;5080455;28;20203;-53
2023/12/22 05:01:24;;;;;;;29.13;5.80;;;8.30;99.90;;;;;;5076215;28;20194;-56
2023/12/22 05:03:53;;;;;;;27.87;5.30;;;8.30;99.90;;;;;;5080754;28;20311;-57
2023/12/22 05:06:22;;;;;;;31.10;6.27;;;8.40;99.90;;;;;;5083802;28;20227;-56
2023/12/22 05:08:50;;;;;;;37.60;5.37;;;8.50;99.90;;;;;;5081288;28;20223;-56
2023/12/22 05:11:18;;;;;;;39.40;6.10;;;8.50;99.90;;;;;;5081017;28;20229;-55
2023/12/22 05:13:48;;;;;;;29.27;5.63;;;8.50;99.90;;;;;;5083919;28;20656;-56
2023/12/22 05:16:16;;;;;;;24.73;4.77;;;8.40;99.90;;;;;;5078914;28;20238;-56
2023/12/22 05:18:45;;;;;;;30.57;5.67;;;8.50;99.90;;;;;;5081054;28;20235;-55
2023/12/22 05:21:14;;;;;;;26.70;5.60;;;8.60;99.90;;;;;;5083502;28;20228;-55
2023/12/22 05:23:43;;;;;;;27.27;5.67;;;8.50;99.90;;;;;;5084566;28;20253;-57
2023/12/22 05:26:16;;;;;;;25.93;5.03;;;8.70;99.90;;;;;;5084486;28;20198;-55
2023/12/22 05:28:45;;;;;;;27.10;5.60;;;8.60;99.90;;;;;;5085060;28;20542;-56
2023/12/22 05:31:14;;;;;;;22.67;5.00;;;8.60;99.90;;;;;;5083020;28;20219;-56
2023/12/22 05:33:42;;;;;;;31.33;5.77;;;8.70;99.90;;;;;;5082356;27;20208;-56
2023/12/22 05:36:11;;;;;;;29.00;6.77;;;8.70;99.90;;;;;;5083063;28;20697;-56
2023/12/22 05:38:39;;;;;;;24.13;4.63;;;8.80;99.90;;;;;;5083146;28;20219;-56
2023/12/22 05:41:08;;;;;;;28.90;5.30;;;8.80;99.90;;;;;;5082333;28;20184;-56
2023/12/22 05:43:36;;;;;;;27.27;5.63;;;8.80;99.90;;;;;;5082575;28;20571;-56
2023/12/22 05:46:04;;;;;;;25.93;4.67;;;8.80;99.90;;;;;;5080968;28;20219;-55
2023/12/22 05:48:35;;;;;;;25.73;4.83;;;8.90;99.90;;;;;;5080570;28;20233;-56
2023/12/22 05:51:07;;;;;;;29.53;5.60;;;8.90;99.90;;;;;;5078379;28;20228;-55
2023/12/22 05:53:35;;;;;;;29.20;4.80;;;8.90;99.90;;;;;;5082648;28;20207;-56
2023/12/22 05:56:04;;;;;;;28.73;5.90;;;8.90;99.90;;;;;;5085186;28;20211;-55
2023/12/22 05:58:32;;;;;;;25.13;5.00;;;8.90;99.90;;;;;;5085623;28;20195;-56
2023/12/22 06:01:00;;;;;;;27.67;4.97;;;8.90;99.90;;;;;;5082427;28;20212;-56
2023/12/22 06:03:28;;;;;;;29.23;4.70;;;8.90;99.90;;;;;;5079125;28;20224;-53
2023/12/22 06:05:59;;;;;;;18.67;3.87;;;8.90;99.90;;;;;;5082434;28;20218;-55
2023/12/22 06:08:31;;;;;;;19.33;4.33;;;8.90;99.90;;;;;;5082338;28;20219;-56
2023/12/22 06:10:59;;;;;;;18.03;4.63;;;9.00;99.90;;;;;;5084487;28;20196;-55
2023/12/22 06:13:27;;;;;;;20.70;4.50;;;9.00;99.90;;;;;;5085073;28;20294;-56
2023/12/22 06:15:55;;;;;;;13.60;3.33;;;9.00;99.90;;;;;;5080766;28;20225;-56
2023/12/22 06:18:24;;;;;;;14.17;3.30;;;9.00;99.90;;;;;;5084303;28;20233;-57
2023/12/22 06:20:52;;;;;;;12.27;3.13;;;9.00;99.90;;;;;;5082426;28;20690;-56
2023/12/22 06:23:22;;;;;;;14.90;3.10;;;9.00;99.90;;;;;;5083707;28;20915;-56
2023/12/22 06:25:50;;;;;;;10.90;3.03;;;9.00;99.90;;;;;;5085320;28;20195;-56
2023/12/22 06:28:19;;;;;;;14.00;3.17;;;9.00;99.90;;;;;;5082947;28;20219;-56
2023/12/22 06:30:47;;;;;;;11.57;3.00;;;9.00;99.90;;;;;;5085759;28;20223;-56
2023/12/22 06:33:15;;;;;;;9.93;2.60;;;9.00;99.90;;;;;;5082390;28;20218;-55
2023/12/22 06:35:44;;;;;;;16.47;2.90;;;9.10;99.90;;;;;;5082095;28;20224;-57
2023/12/22 06:38:13;;;;;;;9.50;3.00;;;9.10;99.90;;;;;;5085070;28;20183;-56
2023/12/22 06:40:44;;;;;;;17.43;3.90;;;9.10;99.90;;;;;;5082208;28;20187;-56
2023/12/22 06:43:12;;;;;;;18.03;3.60;;;9.00;99.90;;;;;;5080236;28;20223;-56
2023/12/22 06:45:40;;;;;;;19.63;3.30;;;9.50;99.90;;;;;;5082912;28;20253;-56
2023/12/22 06:48:10;;;;;;;20.50;3.80;;;9.00;99.90;;;;;;5083315;28;20215;-56
2023/12/22 06:50:39;;;;;;;15.37;3.60;;;9.00;99.90;;;;;;5085244;27;20230;-55
2023/12/22 06:53:08;;;;;;;12.43;3.97;;;8.90;99.90;;;;;;5085424;28;20203;-56
2023/12/22 06:55:50;;;;;;;15.00;3.03;;;8.90;99.90;;;;;;5083992;28;20203;-56
2023/12/22 06:58:21;;;;;;;13.43;3.80;;;8.90;99.90;;;;;;5080502;28;20287;-55
2023/12/22 07:00:49;;;;;;;13.77;4.63;;;9.00;99.90;;;;;;5083338;28;20589;-56
2023/12/22 07:03:19;;;;;;;10.67;3.03;;;9.00;99.90;;;;;;5079547;28;20223;-56
2023/12/22 07:05:47;;;;;;;13.57;4.00;;;8.90;99.90;;;;;;5084345;28;20223;-56
2023/12/22 07:08:16;;;;;;;12.60;4.70;;;9.00;99.90;;;;;;5081411;28;20308;-54
2023/12/22 07:10:45;;;;;;;8.83;3.50;;;9.10;99.90;;;;;;5075967;28;20286;-55
2023/12/22 07:13:15;;;;;;;14.63;3.63;;;9.10;99.90;;;;;;5074828;28;20227;-56
2023/12/22 07:15:45;;;;;;;6.57;2.67;;;9.10;99.90;;;;;;5081283;28;20320;-56
2023/12/22 07:18:13;;;;;;;9.67;3.27;;;9.20;99.90;;;;;;5082751;28;20224;-57
2023/12/22 07:20:42;;;;;;;13.23;3.40;;;9.10;99.90;;;;;;5083643;28;20712;-55
2023/12/22 07:23:11;;;;;;;7.87;3.07;;;9.20;99.90;;;;;;5082326;28;20194;-56
2023/12/22 07:25:40;;;;;;;10.73;3.33;;;9.20;99.90;;;;;;5079179;28;20528;-55
2023/12/22 07:28:09;;;;;;;6.90;2.90;;;9.20;99.90;;;;;;5082956;28;20253;-56
2023/12/22 07:30:38;;;;;;;9.70;3.30;;;9.20;99.90;;;;;;5081677;28;20231;-56
2023/12/22 07:33:06;;;;;;;5.50;2.67;;;9.20;99.90;;;;;;5079688;28;20247;-55
2023/12/22 07:35:35;;;;;;;5.20;3.20;;;9.20;99.90;;;;;;5081383;28;21512;-57
2023/12/22 07:38:04;;;;;;;5.43;3.43;;;9.20;99.90;;;;;;5078149;28;20209;-56
2023/12/22 07:40:32;;;;;;;5.97;3.33;;;9.20;99.90;;;;;;5080672;28;20192;-56
2023/12/22 07:43:00;;;;;;;6.73;3.10;;;9.20;99.90;;;;;;5077976;28;20281;-55
2023/12/22 07:45:29;;;;;;;6.60;2.90;;;9.20;99.90;;;;;;5079375;28;20220;-56
2023/12/22 07:47:59;;;;;;;5.07;2.87;;;9.10;99.90;;;;;;5084401;28;20207;-56
2023/12/22 07:50:28;;;;;;;7.50;2.83;;;9.30;99.90;;;;;;5084168;28;20281;-56
2023/12/22 07:52:58;;;;;;;4.67;3.10;;;9.30;99.90;;;;;;5079679;28;20184;-56
2023/12/22 07:55:29;;;;;;;3.93;3.50;;;9.30;99.90;;;;;;5083352;28;20188;-56
2023/12/22 07:57:58;;;;;;;5.23;3.70;;;9.30;99.90;;;;;;5086732;28;20222;-56
2023/12/22 08:00:26;;;;;;;5.97;3.97;;;9.20;99.90;;;;;;5085638;27;20230;-54
2023/12/22 08:02:54;;;;;;;6.73;4.27;;;9.30;99.90;;;;;;5080851;28;20724;-56
2023/12/22 08:05:24;;;;;;;7.97;4.27;;;9.30;99.90;;;;;;5077884;28;20637;-55
2023/12/22 08:07:52;;;;;;;8.63;4.33;;;9.30;99.90;;;;;;5079401;28;20179;-57
2023/12/22 08:10:21;;;;;;;8.07;4.63;;;9.30;99.90;;;;;;5083968;28;20268;-56
2023/12/22 08:12:49;;;;;;;5.47;4.20;;;9.30;99.90;;;;;;5079661;28;20272;-56
2023/12/22 08:15:17;;;;;;;10.13;4.87;;;9.40;99.90;;;;;;5086715;28;20219;-56
2023/12/22 08:17:56;;;;;;;9.27;5.07;;;9.30;99.90;;;;;;5071600;28;20222;-57
2023/12/22 08:20:26;;;;;;;7.60;5.30;;;9.40;99.90;;;;;;5079944;28;20310;-56
2023/12/22 08:23:00;;;;;;;8.20;5.60;;;9.30;99.90;;;;;;5074999;28;20199;-55
2023/12/22 08:25:35;;;;;;;9.53;6.27;;;9.40;99.90;;;;;;5077160;28;20799;-57
2023/12/22 08:28:03;;;;;;;7.60;5.90;;;9.40;99.90;;;;;;5074327;28;20224;-56
2023/12/22 08:30:31;;;;;;;12.03;6.83;;;9.50;99.90;;;;;;5081542;28;20226;-55
2023/12/22 08:33:00;;;;;;;12.23;6.63;;;9.40;99.90;;;;;;5082854;28;20832;-55
2023/12/22 08:35:30;;;;;;;7.67;5.63;;;9.50;99.90;;;;;;5078170;28;20238;-56
2023/12/22 08:37:58;;;;;;;9.63;5.57;;;9.50;99.90;;;;;;5077421;28;20184;-56
2023/12/22 08:40:27;;;;;;;9.33;5.23;;;9.50;99.90;;;;;;5081697;28;20249;-57
2023/12/22 08:42:59;;;;;;;9.50;5.23;;;9.60;99.90;;;;;;5080869;28;20704;-53
2023/12/22 08:45:28;;;;;;;7.03;4.60;;;9.60;99.90;;;;;;5078461;28;20222;-57
2023/12/22 08:47:57;;;;;;;6.93;3.93;;;9.60;99.90;;;;;;5082087;28;20271;-57
2023/12/22 08:50:26;;;;;;;15.43;4.47;;;9.60;99.90;;;;;;5074909;28;20567;-57
2023/12/22 08:52:56;;;;;;;9.43;3.83;;;9.60;99.90;;;;;;5082326;28;20649;-57
2023/12/22 08:55:24;;;;;;;7.30;3.53;;;9.70;99.90;;;;;;5079474;28;20645;-56
2023/12/22 08:57:53;;;;;;;7.40;3.53;;;9.60;99.90;;;;;;5081663;28;20251;-57
2023/12/22 09:00:30;;;;;;;6.03;3.27;;;9.70;99.90;;;;;;5083913;28;20237;-55
2023/12/22 09:02:58;;;;;;;6.93;2.80;;;9.80;99.90;;;;;;5084693;28;20229;-57
2023/12/22 09:05:26;;;;;;;7.90;3.10;;;9.80;99.90;;;;;;5075108;28;20231;-57
2023/12/22 09:07:56;;;;;;;4.40;2.53;;;9.90;99.90;;;;;;5083669;28;20301;-57
2023/12/22 09:10:25;;;;;;;3.87;2.00;;;10.00;99.90;;;;;;5082112;28;20265;-57
2023/12/22 09:12:54;;;;;;;12.07;2.80;;;10.00;99.90;;;;;;5079830;28;20218;-55
2023/12/22 09:15:22;;;;;;;5.43;2.50;;;10.00;99.90;;;;;;5078537;28;20219;-57
2023/12/22 09:17:51;;;;;;;8.77;2.60;;;10.00;99.90;;;;;;5085059;28;20215;-57
2023/12/22 09:20:20;;;;;;;7.27;2.57;;;10.00;99.90;;;;;;5085681;28;20222;-57
2023/12/22 09:22:49;;;;;;;7.60;2.30;;;10.00;99.90;;;;;;5087302;28;20188;-57
2023/12/22 09:25:19;;;;;;;5.53;2.07;;;10.00;99.90;;;;;;5080404;28;20215;-56
2023/12/22 09:27:47;;;;;;;3.80;1.83;;;10.10;99.90;;;;;;5081955;28;20227;-57
2023/12/22 09:30:16;;;;;;;3.80;1.70;;;10.10;99.90;;;;;;5084588;28;20251;-57
2023/12/22 09:32:44;;;;;;;2.17;1.60;;;10.10;99.90;;;;;;5081467;28;20255;-57
2023/12/22 09:35:13;;;;;;;6.57;2.30;;;10.20;99.90;;;;;;5082444;28;20199;-58
2023/12/22 09:37:41;;;;;;;6.37;2.00;;;10.20;99.90;;;;;;5078051;28;20207;-56
2023/12/22 09:40:11;;;;;;;7.90;2.03;;;10.30;99.90;;;;;;5083342;28;20247;-57
2023/12/22 09:42:43;;;;;;;5.73;2.00;;;10.20;99.90;;;;;;5085862;28;20297;-57
2023/12/22 09:45:13;;;;;;;3.90;1.93;;;10.20;99.90;;;;;;5086722;28;20310;-55
2023/12/22 09:47:44;;;;;;;5.23;1.90;;;10.20;99.90;;;;;;5082440;28;20227;-57
2023/12/22 09:50:13;;;;;;;4.30;2.17;;;10.20;99.90;;;;;;5077248;28;20184;-57
2023/12/22 09:52:45;;;;;;;2.43;1.90;;;10.20;99.90;;;;;;5082179;28;20179;-55
2023/12/22 09:55:14;;;;;;;3.10;1.70;;;10.20;99.90;;;;;;5087785;28;20211;-56
2023/12/22 09:57:45;;;;;;;2.77;1.57;;;10.20;99.90;;;;;;5083351;27;20211;-55
2023/12/22 10:00:16;;;;;;;1.80;1.70;;;10.30;99.90;;;;;;5083618;28;20303;-56
2023/12/22 10:02:45;;;;;;;2.77;1.60;;;10.30;99.90;;;;;;5084168;28;20713;-56
2023/12/22 10:05:14;;;;;;;3.93;2.00;;;10.30;99.90;;;;;;5082026;28;20188;-56
2023/12/22 10:07:45;;;;;;;2.83;1.80;;;10.40;99.90;;;;;;5085718;28;20211;-57
2023/12/22 10:10:13;;;;;;;6.70;2.07;;;10.40;99.90;;;;;;5083592;28;20269;-56
2023/12/22 10:12:46;;;;;;;3.43;2.40;;;10.40;99.90;;;;;;5083069;28;20212;-57
2023/12/22 10:15:18;;;;;;;3.20;2.10;;;10.40;99.90;;;;;;5085867;27;20314;-55
2023/12/22 10:17:47;;;;;;;4.80;2.00;;;10.50;99.90;;;;;;5080135;28;20231;-56
2023/12/22 10:20:16;;;;;;;2.33;1.77;;;10.50;99.90;;;;;;5080003;28;20334;-56
2023/12/22 10:22:45;;;;;;;1.93;1.80;;;10.50;99.90;;;;;;5085834;28;20689;-55
2023/12/22 10:25:16;;;;;;;4.10;2.20;;;10.50;99.90;;;;;;5080576;28;20223;-57
2023/12/22 10:27:46;;;;;;;3.97;1.80;;;10.60;99.90;;;;;;5082959;28;20223;-57
2023/12/22 10:30:16;;;;;;;3.43;1.60;;;10.50;99.90;;;;;;5082391;28;20688;-56
2023/12/22 10:32:45;;;;;;;2.00;1.60;;;10.50;99.90;;;;;;5084318;28;20825;-57
2023/12/22 10:35:13;;;;;;;4.53;2.00;;;10.50;99.90;;;;;;5082359;28;20184;-57
2023/12/22 10:37:41;;;;;;;3.77;1.50;;;10.50;99.90;;;;;;5087442;28;20195;-58
2023/12/22 10:40:11;;;;;;;2.23;1.50;;;10.50;99.90;;;;;;5078347;28;20223;-58
2023/12/22 10:42:41;;;;;;;1.90;1.70;;;10.50;99.90;;;;;;5081151;28;20221;-56
2023/12/22 10:45:11;;;;;;;5.90;1.50;;;10.50;99.90;;;;;;5082423;28;20248;-56
2023/12/22 10:47:40;;;;;;;5.70;1.60;;;10.60;99.90;;;;;;5084874;28;20257;-57
2023/12/22 10:50:09;;;;;;;2.80;1.80;;;10.50;99.90;;;;;;5079619;28;20207;-57
2023/12/22 10:52:37;;;;;;;2.67;1.47;;;10.50;99.90;;;;;;5084512;28;20188;-56
2023/12/22 10:55:07;;;;;;;3.27;1.63;;;10.40;99.90;;;;;;5081108;28;20284;-56
2023/12/22 10:57:37;;;;;;;2.83;1.50;;;10.40;99.90;;;;;;5080804;28;20684;-56
2023/12/22 11:00:08;;;;;;;2.67;1.60;;;10.40;99.90;;;;;;5078929;28;20516;-56
2023/12/22 11:02:42;;;;;;;2.77;1.63;;;10.40;99.90;;;;;;5079312;28;20269;-56
2023/12/22 11:05:13;;;;;;;2.53;1.70;;;10.40;99.90;;;;;;5083540;27;20201;-57
2023/12/22 11:07:44;;;;;;;2.07;1.53;;;10.40;99.90;;;;;;5078815;28;20200;-57
2023/12/22 11:10:15;;;;;;;2.93;1.67;;;10.50;99.90;;;;;;5075134;28;20219;-56
2023/12/22 11:12:45;;;;;;;5.00;1.90;;;10.50;99.90;;;;;;5078386;28;20235;-56
2023/12/22 11:15:14;;;;;;;2.97;1.50;;;10.50;99.90;;;;;;5077130;28;20251;-56
2023/12/22 11:17:45;;;;;;;5.80;1.53;;;10.60;99.90;;;;;;5084945;28;20222;-56
2023/12/22 11:20:14;;;;;;;1.80;1.70;;;10.60;99.90;;;;;;5083242;28;20775;-56
2023/12/22 11:22:44;;;;;;;6.97;2.20;;;10.70;99.90;;;;;;5084854;28;20195;-55
2023/12/22 11:25:14;;;;;;;1.43;1.33;;;10.70;99.90;;;;;;5080203;28;20270;-57
2023/12/22 11:27:45;;;;;;;2.20;1.47;;;10.80;99.90;;;;;;5082850;28;20215;-57
2023/12/22 11:30:15;;;;;;;2.20;1.50;;;10.80;99.90;;;;;;5080709;28;20211;-57
2023/12/22 11:32:46;;;;;;;1.50;1.20;;;10.80;99.90;;;;;;5083650;28;20678;-56
2023/12/22 11:35:16;;;;;;;1.77;1.50;;;10.80;99.90;;;;;;5082755;27;20195;-57
2023/12/22 11:37:46;;;;;;;4.13;1.40;;;10.80;99.90;;;;;;5082678;28;20268;-57
2023/12/22 11:40:15;;;;;;;2.30;1.30;;;10.90;99.90;;;;;;5082375;28;20216;-56
2023/12/22 11:42:46;;;;;;;2.27;1.30;;;10.90;99.90;;;;;;5080785;27;20219;-57
2023/12/22 11:45:19;;;;;;;1.37;1.20;;;10.90;99.90;;;;;;5081599;28;20215;-57
2023/12/22 11:47:48;;;;;;;3.03;1.50;;;11.00;99.90;;;;;;5087110;28;20216;-57
2023/12/22 11:50:30;;;;;;;2.43;1.20;;;11.00;99.90;;;;;;5083580;28;20226;-57
2023/12/22 11:53:19;;;;;;;3.03;1.30;;;11.10;99.90;;;;;;5081994;28;20196;-57
2023/12/22 11:56:04;;;;;;;1.20;1.10;;;11.20;99.90;;;;;;5085324;28;20219;-57
2023/12/22 11:58:37;;;;;;;4.03;1.27;;;11.20;99.90;;;;;;4958332;28;20215;-56
2023/12/22 12:01:07;;;;;;;3.83;1.20;;;11.30;99.90;;;;;;4985167;28;20219;-57
2023/12/22 12:03:43;;;;;;;1.70;1.57;;;11.30;99.90;;;;;;5044864;28;20231;-56
2023/12/22 12:06:18;;;;;;;5.87;1.50;;;11.30;99.90;;;;;;5081027;28;20226;-56
2023/12/22 12:08:48;;;;;;;3.33;1.40;;;11.30;99.90;;;;;;5077405;28;20716;-57
2023/12/22 12:11:18;;;;;;;3.33;1.50;;;11.30;99.90;;;;;;5084441;27;20234;-56
2023/12/22 12:13:48;;;;;;;5.73;1.40;;;11.40;99.90;;;;;;5077717;28;20219;-58
2023/12/22 12:16:21;;;;;;;1.90;1.33;;;11.30;99.90;;;;;;5076840;28;20214;-55
2023/12/22 12:18:52;;;;;;;5.00;1.50;;;11.30;99.90;;;;;;5073069;28;20257;-56
2023/12/22 12:21:21;;;;;;;6.53;3.07;;;11.30;99.90;;;;;;5073403;28;20207;-56
2023/12/22 12:23:49;;;;;;;8.60;3.00;;;11.40;99.90;;;;;;5075958;28;20223;-56
2023/12/22 12:26:18;;;;;;;7.40;2.40;;;11.30;99.90;;;;;;5086228;28;20764;-56
2023/12/22 12:28:48;;;;;;;5.20;2.77;;;11.30;99.90;;;;;;5081310;28;20241;-57
2023/12/22 12:31:16;;;;;;;5.30;1.67;;;11.30;99.90;;;;;;5079468;28;21000;-56
2023/12/22 12:33:45;;;;;;;5.63;2.13;;;11.30;99.90;;;;;;5074586;27;20216;-55
2023/12/22 12:36:16;;;;;;;4.37;2.50;;;11.20;99.90;;;;;;5083429;28;20275;-56
2023/12/22 12:38:59;;;;;;;3.97;1.70;;;11.20;99.90;;;;;;5073650;28;20250;-56
2023/12/22 12:41:31;;;;;;;6.50;1.97;;;11.20;99.90;;;;;;5074203;28;20223;-54
2023/12/22 12:44:05;;;;;;;11.27;5.93;;;11.10;99.90;;;;;;5073438;28;20199;-56
2023/12/22 12:46:35;;;;;;;11.47;5.50;;;11.00;99.90;;;;;;5084228;28;20550;-56
2023/12/22 12:49:05;;;;;;;14.03;5.83;;;11.00;99.90;;;;;;5089884;27;20292;-55
2023/12/22 12:51:38;;;;;;;9.77;3.60;;;11.00;99.90;;;;;;5083903;28;20242;-56
2023/12/22 12:54:07;;;;;;;8.83;4.07;;;11.00;99.90;;;;;;5080785;28;20786;-56
2023/12/22 12:56:39;;;;;;;7.20;3.13;;;11.00;99.90;;;;;;5074104;28;20226;-56
2023/12/22 12:59:11;;;;;;;5.27;2.17;;;11.00;99.90;;;;;;5074841;27;20604;-54